Dougherty, Texas
Current Conditions -  °F | °C
As of 5:35 PM on Saturday 22 Nov 2014 (Local Time) from KPVW Reporting Station
Clear Clear  
Wind Chill: 60°   Ceiling: Unl
Heat Index: 60°   Visibility: 10mi
Dew Point: 45°   Wind: 5mph
Humidity: 58%   Direction: 210°SSW
Pressure: 29.72"   Gusts: NA
Location:  33.94°N, 101.09°W
Report Text: KPVW 222335Z AUTO 21004KT 10SM CLR 16/07 A2972 RMK AO2 T01550073
Loading
Personal Weather Stations






























Interactive Weather Map New forecast layout! Learn more

10-Day Weather Forecast

Advertisements
Track Severe Weather on mobile